Time;durP1;ratioP1;P1;durP2;ratioP2;P2;SDS_P1;SDS_P2;PMS_P1;PMS_P2;Temp;Humidity;BMP_temperature;BMP_pressure;BME280_temperature;BME280_humidity;BME280_pressure;Samples;Min_cycle;Max_cycle;Signal;HPM_P1;HPM_P2
2022/06/30 00:00:56;;;;;;;0.50;0.50;;;18.70;99.90;19.60;100984.00;;;;5037901;28;20631;-67
2022/06/30 00:04:15;;;;;;;0.30;0.30;;;18.90;99.90;19.10;100950.00;;;;5037943;28;20199;-67
2022/06/30 00:07:25;;;;;;;0.30;0.30;;;18.70;99.90;19.40;100980.00;;;;5037813;28;20268;-67
2022/06/30 00:10:16;;;;;;;0.43;0.43;;;18.70;99.90;19.60;100959.00;;;;5037926;28;20184;-67
2022/06/30 00:13:20;;;;;;;0.50;0.50;;;18.80;99.90;19.30;100962.00;;;;5021239;28;20204;-67
2022/06/30 00:16:22;;;;;;;0.40;0.40;;;18.80;99.90;19.40;100964.00;;;;5038685;28;20200;-67
2022/06/30 00:19:28;;;;;;;0.40;0.40;;;18.80;99.90;19.40;100932.00;;;;5054906;28;20190;-67
2022/06/30 00:22:32;;;;;;;0.50;0.50;;;18.70;99.90;19.20;100966.00;;;;5037382;28;20640;-68
2022/06/30 00:25:33;;;;;;;0.40;0.40;;;18.60;99.90;19.10;100962.00;;;;5037641;28;20184;-67
2022/06/30 00:28:26;;;;;;;0.40;0.40;;;18.60;99.90;19.20;100938.00;;;;5037820;28;20175;-68
2022/06/30 00:31:30;;;;;;;0.40;0.40;;;18.50;99.90;19.30;100955.00;;;;5039958;28;20254;-67
2022/06/30 00:34:31;;;;;;;0.50;0.50;;;18.50;99.90;19.40;100966.00;;;;5037860;28;20189;-67
2022/06/30 00:37:55;;;;;;;0.40;0.40;;;18.70;99.90;19.20;100965.00;;;;5055158;28;20630;-67
2022/06/30 00:41:03;;;;;;;0.40;0.40;;;18.60;99.90;19.50;100975.00;;;;5041343;28;20188;-67
2022/06/30 00:44:04;;;;;;;0.50;0.50;;;18.70;99.90;19.60;100956.00;;;;5055510;28;20183;-67
2022/06/30 00:46:56;;;;;;;0.40;0.40;;;18.90;99.90;19.40;100958.00;;;;5020549;28;20187;-67
2022/06/30 00:49:57;;;;;;;0.50;0.50;;;18.80;99.90;19.40;100982.00;;;;5037194;28;20191;-68
2022/06/30 00:52:45;;;;;;;0.40;0.40;;;18.80;99.90;19.30;100980.00;;;;5036970;28;20196;-67
2022/06/30 00:55:50;;;;;;;0.50;0.50;;;18.70;99.90;19.30;100985.00;;;;5036034;28;20650;-67
2022/06/30 00:58:55;;;;;;;0.40;0.40;;;18.70;99.90;19.30;100982.00;;;;5053190;28;20192;-67
2022/06/30 01:01:59;;;;;;;0.43;0.43;;;18.70;99.90;19.10;100978.00;;;;5036661;28;20224;-67
2022/06/30 01:05:02;;;;;;;0.50;0.50;;;18.60;99.90;19.10;100972.00;;;;5036887;28;20687;-67
2022/06/30 01:08:07;;;;;;;0.50;0.50;;;18.50;99.90;19.30;100985.00;;;;5036028;28;20207;-67
2022/06/30 01:14:13;;;;;;;0.50;0.50;;;18.50;99.90;19.20;100985.00;;;;5039394;28;20181;-68
2022/06/30 01:17:16;;;;;;;0.60;0.60;;;18.60;99.90;18.90;100975.00;;;;5036779;28;20575;-67
2022/06/30 01:20:28;;;;;;;0.50;0.50;;;18.50;99.90;19.50;100986.00;;;;5036467;28;20185;-67
2022/06/30 01:23:14;;;;;;;0.50;0.50;;;18.60;99.90;18.80;100985.00;;;;5050269;28;20716;-67
2022/06/30 01:26:15;;;;;;;0.60;0.60;;;18.50;99.90;19.10;100993.00;;;;5054249;28;20713;-67
2022/06/30 01:29:16;;;;;;;0.50;0.50;;;18.50;99.90;19.00;100993.00;;;;5036031;28;20204;-67
2022/06/30 01:32:34;;;;;;;0.40;0.40;;;18.40;99.90;18.80;100982.00;;;;5036152;28;20217;-67
2022/06/30 01:35:18;;;;;;;0.67;0.67;;;18.40;99.90;18.70;100987.00;;;;5036193;28;20171;-67
2022/06/30 01:37:56;;;;;;;0.50;0.50;;;18.20;99.90;18.60;100945.00;;;;5036352;28;20168;-67
2022/06/30 01:41:02;;;;;;;0.50;0.50;;;18.10;99.90;18.80;100969.00;;;;5036450;28;20179;-67
2022/06/30 01:44:03;;;;;;;0.50;0.50;;;18.10;99.90;18.90;100954.00;;;;5035691;28;20238;-67
2022/06/30 01:51:23;;;;;;;0.50;0.50;;;18.20;99.90;19.00;100956.00;;;;5044644;28;20233;-68
2022/06/30 01:54:24;;;;;;;0.50;0.50;;;18.30;99.90;18.10;100940.00;;;;5035724;28;20188;-67
2022/06/30 01:57:31;;;;;;;0.50;0.50;;;17.90;99.90;17.30;100960.00;;;;5035814;28;20262;-67
2022/06/30 02:00:26;;;;;;;0.47;0.47;;;17.40;99.90;16.80;100974.00;;;;5035769;28;20228;-67
2022/06/30 02:03:09;;;;;;;0.50;0.50;;;16.90;99.90;17.20;100896.00;;;;5053251;28;20192;-67
2022/06/30 02:06:15;;;;;;;0.50;0.50;;;16.90;99.90;17.80;100972.00;;;;5035756;28;20178;-67
2022/06/30 02:12:46;;;;;;;0.57;0.57;;;17.50;99.90;18.60;100949.00;;;;4958639;28;20219;-67
2022/06/30 02:15:36;;;;;;;0.60;0.60;;;17.70;99.90;18.20;100945.00;;;;4972702;28;20186;-67
2022/06/30 02:18:34;;;;;;;0.60;0.60;;;17.60;99.90;18.30;100946.00;;;;4956595;28;20186;-67
2022/06/30 02:21:17;;;;;;;0.60;0.60;;;17.60;99.90;18.50;100927.00;;;;4972791;28;20665;-67
2022/06/30 02:24:21;;;;;;;0.70;0.70;;;17.70;99.90;18.50;100927.00;;;;4956379;28;20629;-67
2022/06/30 02:27:27;;;;;;;0.50;0.50;;;17.80;99.90;18.60;100930.00;;;;4956172;28;20806;-67
2022/06/30 02:30:13;;;;;;;0.57;0.57;;;17.90;99.90;18.60;100946.00;;;;4941721;28;20683;-67
2022/06/30 02:33:17;;;;;;;1.03;0.90;;;17.80;99.90;17.90;100957.00;;;;4972248;28;20233;-67
2022/06/30 02:35:56;;;;;;;2.30;2.10;;;17.70;99.90;17.10;100976.00;;;;4956415;28;20221;-67
2022/06/30 02:38:22;;;;;;;0.90;0.90;;;17.20;99.90;16.90;101001.00;;;;4955704;28;20275;-65
2022/06/30 02:41:07;;;;;;;0.60;0.60;;;16.80;99.90;16.70;101016.00;;;;4956137;28;20336;-65
2022/06/30 02:44:08;;;;;;;0.40;0.40;;;16.60;99.90;16.70;101011.00;;;;5033249;28;20280;-67
2022/06/30 02:47:09;;;;;;;1.77;1.37;;;16.60;99.90;16.60;100992.00;;;;5053116;28;20244;-66
2022/06/30 02:49:55;;;;;;;0.90;0.90;;;16.50;99.90;16.80;101028.00;;;;5035365;28;20189;-65
2022/06/30 02:52:43;;;;;;;2.63;1.47;;;16.50;99.90;16.50;101026.00;;;;5035566;28;20304;-66
2022/06/30 02:55:47;;;;;;;0.83;0.83;;;16.50;99.90;16.40;101033.00;;;;5052650;28;20179;-65
2022/06/30 02:58:51;;;;;;;1.90;1.37;;;16.40;99.90;16.30;101030.00;;;;5035604;28;20190;-65
2022/06/30 03:01:53;;;;;;;2.00;1.53;;;16.20;99.90;16.50;100997.00;;;;5035395;28;20657;-66
2022/06/30 03:04:56;;;;;;;1.73;1.63;;;16.30;99.90;16.70;101025.00;;;;5035276;28;20217;-66
2022/06/30 03:07:57;;;;;;;0.80;0.80;;;16.40;99.90;16.60;101024.00;;;;5036725;28;20182;-65
2022/06/30 03:10:43;;;;;;;1.77;1.10;;;16.40;99.90;16.90;101016.00;;;;5034654;28;20182;-65
2022/06/30 03:13:29;;;;;;;0.60;0.60;;;16.40;99.90;16.50;101023.00;;;;5052777;28;20268;-66
2022/06/30 03:16:34;;;;;;;0.50;0.50;;;16.40;99.90;16.40;101019.00;;;;5035081;28;20194;-65
2022/06/30 03:19:24;;;;;;;0.50;0.50;;;16.30;99.90;17.00;101001.00;;;;5053238;28;20194;-66
2022/06/30 03:22:27;;;;;;;0.50;0.50;;;16.50;99.90;17.40;100997.00;;;;5039133;28;20176;-65
2022/06/30 03:25:11;;;;;;;0.50;0.50;;;16.70;99.90;17.50;101003.00;;;;5037891;28;20194;-66
2022/06/30 03:28:16;;;;;;;0.93;0.93;;;16.90;99.90;16.90;100977.00;;;;5038767;28;20201;-66
2022/06/30 03:31:02;;;;;;;0.70;0.70;;;16.70;99.90;17.40;100988.00;;;;5026417;28;20645;-66
2022/06/30 03:34:03;;;;;;;0.50;0.50;;;16.80;99.90;17.70;100978.00;;;;5019529;28;20341;-66
2022/06/30 03:36:47;;;;;;;0.50;0.50;;;16.90;99.90;18.10;100964.00;;;;5018638;28;20179;-66
2022/06/30 03:39:51;;;;;;;1.60;1.50;;;17.20;99.90;18.00;100983.00;;;;5018290;28;20310;-66
2022/06/30 03:42:45;;;;;;;0.53;0.53;;;17.40;99.90;17.70;100991.00;;;;5035347;28;20179;-66
2022/06/30 03:45:18;;;;;;;0.80;0.80;;;17.30;99.90;17.90;100983.00;;;;5018469;28;20667;-66
2022/06/30 03:48:04;;;;;;;1.47;1.37;;;17.30;99.90;18.00;100976.00;;;;5018414;28;20195;-66
2022/06/30 03:50:48;;;;;;;0.50;0.50;;;17.40;99.90;17.30;100986.00;;;;5034977;28;20302;-66
2022/06/30 03:53:54;;;;;;;0.53;0.53;;;17.20;99.90;17.20;100994.00;;;;5034789;28;20270;-65
2022/06/30 03:56:45;;;;;;;1.43;1.33;;;16.90;99.90;17.50;100992.00;;;;5018159;28;20234;-66
2022/06/30 03:59:37;;;;;;;6.07;1.80;;;16.90;99.90;17.60;101002.00;;;;5036101;28;20658;-66
2022/06/30 04:02:28;;;;;;;1.23;1.23;;;17.00;99.90;17.20;101007.00;;;;5034514;28;20210;-66
2022/06/30 04:05:15;;;;;;;2.53;1.90;;;17.10;99.90;17.00;101015.00;;;;5034566;28;20539;-66
2022/06/30 04:08:22;;;;;;;1.37;1.27;;;16.80;99.90;17.40;100917.00;;;;5017663;28;20222;-66
2022/06/30 04:11:06;;;;;;;0.40;0.40;;;16.80;99.90;17.20;101019.00;;;;5017514;28;20231;-66
2022/06/30 04:14:05;;;;;;;1.13;1.03;;;17.00;99.90;17.10;101014.00;;;;5035864;28;20753;-66
2022/06/30 04:17:11;;;;;;;0.40;0.40;;;16.90;99.90;17.70;101014.00;;;;5018013;28;20184;-66
2022/06/30 04:20:18;;;;;;;0.90;0.90;;;16.90;99.90;17.90;101011.00;;;;5034384;28;20240;-66
2022/06/30 04:23:22;;;;;;;0.40;0.40;;;17.30;99.90;18.20;100996.00;;;;5034656;28;20171;-66
2022/06/30 04:26:08;;;;;;;0.43;0.40;;;17.50;99.90;17.90;100999.00;;;;5034045;28;20291;-66
2022/06/30 04:29:02;;;;;;;0.30;0.30;;;17.50;99.90;18.70;100994.00;;;;5034619;28;20641;-66
2022/06/30 04:35:11;;;;;;;0.30;0.30;;;18.10;99.90;20.30;100989.00;;;;5034380;28;20671;-66
2022/06/30 04:37:58;;;;;;;0.30;0.30;;;19.10;99.90;20.70;100971.00;;;;5033865;28;20236;-66
2022/06/30 04:44:11;;;;;;;0.20;0.20;;;20.80;99.90;23.00;101004.00;;;;5020480;28;20656;-67
2022/06/30 04:50:59;;;;;;;0.20;0.20;;;21.90;99.90;22.70;101044.00;;;;5023821;28;20664;-67
2022/06/30 04:53:54;;;;;;;0.20;0.20;;;21.70;99.90;22.30;101043.00;;;;5033523;28;20540;-67
2022/06/30 04:56:57;;;;;;;0.57;0.40;;;21.40;99.90;20.20;100999.00;;;;5017061;28;20178;-66
2022/06/30 05:00:20;;;;;;;9.83;0.90;;;20.30;99.90;19.00;100943.00;;;;5033945;28;20539;-67
2022/06/30 05:03:05;;;;;;;0.30;0.30;;;19.20;99.90;18.40;100975.00;;;;5016906;28;20623;-67
2022/06/30 05:06:16;;;;;;;0.40;0.40;;;18.20;99.90;18.00;100984.00;;;;5034711;28;20203;-67
2022/06/30 05:12:55;;;;;;;0.40;0.40;;;17.90;99.90;19.80;101012.00;;;;5018526;28;20212;-68
2022/06/30 05:16:19;;;;;;;0.20;0.20;;;18.80;99.90;19.20;100989.00;;;;5034574;28;20180;-67
2022/06/30 05:19:07;;;;;;;1.70;1.38;;;19.30;99.90;18.80;100985.00;;;;5016929;28;20177;-67
2022/06/30 05:21:58;;;;;;;1.55;1.45;;;18.70;99.90;18.50;100988.00;;;;5016263;28;20282;-67
2022/06/30 05:28:09;;;;;;;0.10;0.10;;;19.10;99.90;21.20;101008.00;;;;5033213;28;20214;-67
2022/06/30 05:30:57;;;;;;;0.28;0.28;;;20.10;99.90;20.40;100989.00;;;;5033135;28;20179;-67
2022/06/30 05:33:48;;;;;;;0.10;0.10;;;20.40;99.90;19.00;100988.00;;;;5033047;28;20537;-67
2022/06/30 05:36:34;;;;;;;0.10;0.10;;;19.40;99.90;20.10;101011.00;;;;4999873;28;20661;-67
2022/06/30 05:39:25;;;;;;;0.57;0.57;;;19.40;99.90;20.20;100999.00;;;;5033931;28;20182;-67
2022/06/30 05:42:28;;;;;;;0.57;0.57;;;19.90;99.90;19.80;100997.00;;;;5032372;28;20183;-67
2022/06/30 05:45:32;;;;;;;1.35;0.52;;;19.80;99.90;20.60;101017.00;;;;5032772;28;20171;-67
2022/06/30 05:48:36;;;;;;;0.70;0.68;;;19.90;99.90;22.70;101055.00;;;;5032895;28;20178;-67
2022/06/30 05:51:40;;;;;;;0.52;0.52;;;21.40;99.90;21.20;101038.00;;;;5015807;28;20230;-67
2022/06/30 05:54:45;;;;;;;0.25;0.25;;;21.60;99.90;21.80;101026.00;;;;5016092;28;20267;-67
2022/06/30 05:57:49;;;;;;;0.65;0.65;;;20.90;99.90;21.30;101031.00;;;;5028534;28;20193;-67
2022/06/30 06:00:42;;;;;;;4.57;0.40;;;21.00;99.90;19.50;101000.00;;;;5032910;28;20201;-67
2022/06/30 06:03:28;;;;;;;0.30;0.30;;;20.20;99.90;20.30;101010.00;;;;5032771;28;20685;-67
2022/06/30 06:06:24;;;;;;;0.88;0.75;;;20.10;99.90;19.30;100997.00;;;;5015697;28;20218;-67
2022/06/30 06:09:30;;;;;;;1.27;1.20;;;19.70;99.90;21.70;101017.00;;;;5032641;28;20266;-67
2022/06/30 06:12:30;;;;;;;2.95;0.85;;;20.60;99.90;22.00;101020.00;;;;5015616;28;20198;-67
2022/06/30 06:15:35;;;;;;;0.50;0.50;;;21.40;99.90;19.80;101008.00;;;;5032877;28;20210;-67
2022/06/30 06:18:21;;;;;;;0.10;0.10;;;20.70;99.90;20.60;101034.00;;;;5032037;28;20175;-67
2022/06/30 06:21:07;;;;;;;2.53;1.02;;;20.30;99.90;22.50;101077.00;;;;5033397;28;20203;-66
2022/06/30 06:24:08;;;;;;;0.30;0.30;;;21.60;99.90;21.90;101062.00;;;;5032410;28;20222;-66
2022/06/30 06:27:11;;;;;;;0.30;0.30;;;21.60;99.90;20.90;101018.00;;;;5033238;28;20189;-66
2022/06/30 06:30:00;;;;;;;0.10;0.10;;;21.10;99.90;20.90;101054.00;;;;5032222;28;20174;-67
2022/06/30 06:32:50;;;;;;;0.45;0.45;;;20.90;99.90;21.40;101057.00;;;;5015258;28;20239;-67
2022/06/30 06:35:54;;;;;;;0.10;0.10;;;21.10;99.90;25.60;101117.00;;;;5033669;28;20205;-67
2022/06/30 06:39:08;;;;;;;0.20;0.20;;;23.10;99.90;28.50;101163.00;;;;5032618;28;20178;-67
2022/06/30 06:46:26;;;;;;;0.20;0.20;;;28.20;99.90;30.00;101153.00;;;;5016604;28;20278;-68
2022/06/30 06:49:36;;;;;;;2.58;0.50;;;29.10;99.90;24.70;101181.00;;;;5015578;28;20182;-68
2022/06/30 06:52:41;;;;;;;0.10;0.10;;;26.80;99.90;27.70;101197.00;;;;5033208;28;20202;-68
2022/06/30 06:55:45;;;;;;;2.30;1.55;;;26.20;99.90;28.00;101208.00;;;;5015645;28;20182;-68
2022/06/30 06:58:28;;;;;;;1.63;0.57;;;26.30;99.90;26.60;101223.00;;;;5036353;28;20178;-68
2022/06/30 07:01:32;;;;;;;2.22;1.60;;;26.00;99.90;24.10;101192.00;;;;5019406;28;20232;-67
2022/06/30 07:04:33;;;;;;;1.45;1.13;;;24.30;99.90;25.40;101176.00;;;;5035595;28;20203;-67
2022/06/30 07:07:40;;;;;;;0.10;0.10;;;23.80;99.90;26.90;101185.00;;;;5035934;28;20185;-68
2022/06/30 07:10:47;;;;;;;0.77;0.77;;;25.20;99.90;25.40;101195.00;;;;5018899;28;20179;-68
2022/06/30 07:13:49;;;;;;;0.10;0.10;;;25.20;99.90;28.30;101214.00;;;;5018768;28;20222;-68
2022/06/30 07:16:49;;;;;;;0.47;0.47;;;26.20;99.90;26.90;101219.00;;;;5018898;28;20179;-68
2022/06/30 07:19:40;;;;;;;4.38;0.90;;;26.00;99.90;25.80;101218.00;;;;5019020;28;20646;-68
2022/06/30 07:22:54;;;;;;;0.10;0.10;;;25.50;99.90;25.10;101214.00;;;;5018914;28;20187;-68
2022/06/30 07:25:43;;;;;;;0.35;0.35;;;25.50;99.90;20.90;101112.00;;;;5018100;28;20218;-66
2022/06/30 07:28:27;;;;;;;2.30;1.17;;;21.90;99.90;23.10;101162.00;;;;5035266;28;20171;-66
2022/06/30 07:31:28;;;;;;;1.08;0.47;;;22.20;99.90;23.20;101171.00;;;;5034698;28;20788;-66
2022/06/30 07:34:17;;;;;;;0.10;0.10;;;22.70;99.90;25.40;101213.00;;;;5036588;28;20658;-67
2022/06/30 07:37:08;;;;;;;0.55;0.55;;;23.90;99.90;23.20;101155.00;;;;5018724;28;20179;-66
2022/06/30 07:39:54;;;;;;;1.02;1.02;;;23.30;99.90;21.20;101153.00;;;;5018513;28;20232;-67
2022/06/30 07:43:08;;;;;;;0.47;0.47;;;21.70;99.90;22.40;101168.00;;;;5036469;28;20592;-67
2022/06/30 07:45:52;;;;;;;0.50;0.50;;;21.80;99.90;23.70;101185.00;;;;4999071;28;20194;-67
2022/06/30 07:48:44;;;;;;;1.10;0.88;;;22.40;99.90;22.00;101174.00;;;;5035156;28;20192;-67
2022/06/30 07:51:30;;;;;;;0.70;0.35;;;22.40;99.90;22.30;101158.00;;;;5018315;28;20228;-67
2022/06/30 07:54:16;;;;;;;0.45;0.45;;;22.00;99.90;22.50;101151.00;;;;5018458;28;20187;-67
2022/06/30 07:57:20;;;;;;;0.20;0.20;;;21.80;99.90;23.20;101179.00;;;;5018834;28;20529;-67
2022/06/30 08:00:06;;;;;;;0.45;0.40;;;22.00;99.90;25.10;101218.00;;;;5018070;28;20237;-67
2022/06/30 08:06:45;;;;;;;0.10;0.10;;;23.20;99.90;28.40;101241.00;;;;5036088;28;20277;-67
2022/06/30 08:09:49;;;;;;;0.10;0.10;;;26.20;99.90;29.40;101243.00;;;;5018502;28;20194;-68
2022/06/30 08:12:34;;;;;;;0.50;0.50;;;27.00;99.90;29.50;101247.00;;;;5017365;28;20230;-68
2022/06/30 08:15:28;;;;;;;1.83;0.68;;;28.40;99.90;29.20;101234.00;;;;5018049;28;20631;-67
2022/06/30 08:18:14;;;;;;;0.75;0.75;;;28.50;99.90;26.20;101230.00;;;;5034588;28;20182;-68
2022/06/30 08:21:09;;;;;;;0.10;0.10;;;26.90;99.90;24.50;101220.00;;;;5017750;28;20309;-67
2022/06/30 08:24:11;;;;;;;0.10;0.10;;;24.80;99.90;27.60;101214.00;;;;5018183;28;20179;-69
2022/06/30 08:27:06;;;;;;;1.35;0.95;;;25.60;99.90;24.80;101211.00;;;;5017566;28;20189;-69
2022/06/30 08:30:07;;;;;;;0.20;0.20;;;24.90;99.90;25.30;101214.00;;;;5034023;28;20580;-67
2022/06/30 08:32:53;;;;;;;4.95;0.70;;;24.00;99.90;25.40;101235.00;;;;5017222;28;20685;-69
2022/06/30 08:35:44;;;;;;;0.10;0.10;;;24.70;99.90;27.40;101233.00;;;;5017675;28;20171;-69
2022/06/30 08:38:29;;;;;;;2.30;2.20;;;25.70;99.90;24.10;101240.00;;;;5033954;28;20175;-69
2022/06/30 08:44:37;;;;;;;2.40;0.68;;;24.00;99.90;25.60;101231.00;;;;5034100;28;20201;-67
2022/06/30 08:47:41;;;;;;;0.30;0.30;;;24.30;99.90;23.40;101163.00;;;;5001145;28;20182;-67
2022/06/30 08:50:43;;;;;;;0.60;0.60;;;23.30;99.90;25.00;101230.00;;;;5017136;28;20629;-67
2022/06/30 08:54:00;;;;;;;0.73;0.73;;;24.40;99.90;24.80;101233.00;;;;5033521;28;20195;-67
2022/06/30 08:57:02;;;;;;;0.35;0.35;;;24.30;99.90;24.50;101220.00;;;;5017231;28;20175;-67
2022/06/30 08:59:45;;;;;;;0.10;0.10;;;23.50;99.90;27.60;101261.00;;;;5034482;28;20597;-67
2022/06/30 09:02:29;;;;;;;0.10;0.10;;;25.90;99.90;28.80;101272.00;;;;5033793;28;20232;-68
2022/06/30 09:05:13;;;;;;;0.10;0.10;;;27.20;99.90;26.20;101262.00;;;;5016856;28;20523;-67
2022/06/30 09:07:59;;;;;;;0.10;0.10;;;26.50;99.90;26.70;101266.00;;;;5017165;28;20256;-68
2022/06/30 09:10:49;;;;;;;0.55;0.55;;;25.90;99.90;22.70;101214.00;;;;5033239;28;20179;-68
2022/06/30 09:13:45;;;;;;;0.10;0.10;;;23.50;99.90;23.20;101206.00;;;;5016356;28;20217;-68
2022/06/30 09:16:52;;;;;;;1.52;0.45;;;22.90;99.90;21.40;101160.00;;;;5032503;28;20538;-68
2022/06/30 09:19:50;;;;;;;0.77;0.77;;;22.00;99.90;22.80;101170.00;;;;5000161;28;20626;-68
2022/06/30 09:22:37;;;;;;;1.65;1.35;;;22.10;99.90;21.80;101127.00;;;;5016880;28;20193;-68
2022/06/30 09:25:15;;;;;;;0.10;0.10;;;21.90;99.90;22.80;101153.00;;;;5016661;28;20233;-68
2022/06/30 09:28:03;;;;;;;1.05;0.68;;;21.90;99.90;22.70;101169.00;;;;5016665;28;20278;-68
2022/06/30 09:30:56;;;;;;;0.65;0.65;;;22.30;99.90;22.60;101188.00;;;;5033286;28;20171;-68
2022/06/30 09:33:44;;;;;;;3.35;0.77;;;22.30;99.90;23.60;101200.00;;;;5032903;28;20678;-68
2022/06/30 09:36:28;;;;;;;3.00;1.08;;;22.80;99.90;24.00;101214.00;;;;5033535;28;20261;-68
2022/06/30 09:39:11;;;;;;;0.10;0.10;;;23.20;99.90;23.20;101214.00;;;;5032867;28;20212;-68
2022/06/30 09:42:22;;;;;;;0.32;0.32;;;23.20;99.90;23.00;101185.00;;;;5033047;28;20195;-68
2022/06/30 09:45:33;;;;;;;0.20;0.20;;;22.50;99.90;25.30;101241.00;;;;5033799;28;20182;-68
2022/06/30 09:48:26;;;;;;;1.02;0.40;;;24.00;99.90;23.50;101216.00;;;;5016436;28;20194;-68
2022/06/30 09:51:42;;;;;;;0.45;0.45;;;23.20;99.90;21.90;101193.00;;;;5032615;28;20667;-68
2022/06/30 09:54:59;;;;;;;0.40;0.40;;;22.00;99.90;22.70;101196.00;;;;5016032;28;20560;-68
2022/06/30 09:58:10;;;;;;;0.35;0.35;;;22.00;99.90;22.10;101188.00;;;;5016071;28;20232;-68
2022/06/30 10:01:19;;;;;;;2.40;0.45;;;21.90;99.90;21.60;101165.00;;;;4999380;28;20645;-68
2022/06/30 10:04:10;;;;;;;0.20;0.20;;;21.50;99.90;22.60;101160.00;;;;5032830;28;20168;-68
2022/06/30 10:07:11;;;;;;;0.20;0.20;;;21.70;99.90;23.20;101168.00;;;;5032367;28;20191;-68
2022/06/30 10:10:15;;;;;;;0.20;0.20;;;22.10;99.90;22.20;101158.00;;;;5032219;28;20579;-67
2022/06/30 10:13:17;;;;;;;0.40;0.30;;;21.70;99.90;20.50;101118.00;;;;5032097;28;20194;-67
2022/06/30 10:16:05;;;;;;;0.20;0.20;;;20.70;99.90;20.90;101151.00;;;;4957753;28;20259;-67
2022/06/30 10:18:54;;;;;;;0.88;0.73;;;20.40;99.90;20.50;101159.00;;;;4973636;28;20267;-68
2022/06/30 10:33:50;;;;;;;2.40;0.93;;;19.30;99.90;19.10;101126.00;;;;5113175;27;1323400;-68
2022/06/30 10:36:47;;;;;;;0.77;0.60;;;19.30;99.90;19.40;101120.00;;;;5130732;28;20269;-67
2022/06/30 10:39:50;;;;;;;0.30;0.30;;;19.40;99.90;18.80;101104.00;;;;5130495;28;20269;-67
2022/06/30 10:42:56;;;;;;;0.20;0.20;;;19.10;99.90;19.30;101107.00;;;;5130604;28;20181;-67
2022/06/30 10:45:30;;;;;;;0.40;0.40;;;19.10;99.90;18.70;101112.00;;;;5130468;28;20174;-67
2022/06/30 10:48:50;;;;;;;1.00;0.90;;;19.00;99.90;19.30;101115.00;;;;5131501;28;20216;-67
2022/06/30 10:51:57;;;;;;;0.93;0.93;;;19.20;99.90;20.50;101115.00;;;;5118352;28;20225;-68
2022/06/30 10:55:28;;;;;;;0.30;0.30;;;19.60;99.90;21.10;101113.00;;;;5115022;28;20264;-68
2022/06/30 10:58:19;;;;;;;0.37;0.37;;;20.20;99.90;21.10;101109.00;;;;5075878;28;20633;-67
2022/06/30 11:01:07;;;;;;;0.20;0.20;;;20.30;99.90;21.30;101117.00;;;;5130070;28;20178;-68
2022/06/30 11:03:50;;;;;;;4.03;0.65;;;20.50;99.90;21.40;101131.00;;;;5130006;28;20195;-68
2022/06/30 11:07:01;;;;;;;0.25;0.25;;;20.80;99.90;21.50;101145.00;;;;5131356;27;20198;-68
2022/06/30 11:09:48;;;;;;;16.85;1.15;;;20.90;99.90;20.50;101086.00;;;;5129643;28;20174;-68
2022/06/30 11:12:58;;;;;;;0.70;0.55;;;20.30;99.90;19.30;101100.00;;;;5129651;28;20214;-68
2022/06/30 11:15:51;;;;;;;0.40;0.40;;;19.60;99.90;19.60;101087.00;;;;5117166;27;20209;-68
2022/06/30 11:18:54;;;;;;;0.40;0.40;;;19.40;99.90;20.70;101112.00;;;;5129709;28;20648;-68
2022/06/30 11:21:44;;;;;;;0.20;0.20;;;19.80;99.90;21.40;101109.00;;;;5112520;28;20584;-68
2022/06/30 11:24:38;;;;;;;0.90;0.55;;;20.50;99.90;20.30;101060.00;;;;5112243;28;20196;-68
2022/06/30 11:27:39;;;;;;;0.20;0.20;;;20.40;99.90;20.80;101071.00;;;;5112722;28;20178;-68
2022/06/30 11:30:46;;;;;;;0.20;0.20;;;20.10;99.90;21.70;101119.00;;;;5129083;28;20183;-68
2022/06/30 11:33:50;;;;;;;0.20;0.20;;;20.80;99.90;21.80;101128.00;;;;5129563;28;20710;-68
2022/06/30 11:36:54;;;;;;;0.20;0.20;;;21.20;99.90;22.10;101105.00;;;;5129456;28;20175;-68
2022/06/30 11:39:57;;;;;;;0.65;0.50;;;21.30;99.90;22.10;101154.00;;;;5129285;28;20187;-66
2022/06/30 11:42:50;;;;;;;0.30;0.30;;;21.40;99.90;20.60;101144.00;;;;5111317;28;20584;-67
2022/06/30 11:45:40;;;;;;;0.50;0.50;;;21.00;99.90;20.00;101111.00;;;;5115534;28;20267;-68
2022/06/30 11:48:47;;;;;;;0.40;0.40;;;20.00;99.90;19.10;101091.00;;;;5116237;28;20236;-68
2022/06/30 11:51:43;;;;;;;0.68;0.57;;;19.40;99.90;19.30;101102.00;;;;5098091;28;20206;-68
2022/06/30 11:54:52;;;;;;;0.20;0.20;;;19.30;99.90;19.80;101107.00;;;;5115598;28;20179;-69
2022/06/30 11:57:42;;;;;;;0.20;0.20;;;19.20;99.90;19.70;101092.00;;;;5098614;28;20629;-67
2022/06/30 12:00:12;;;;;;;0.68;0.68;;;19.40;99.90;19.50;101089.00;;;;5098076;28;20183;-68
2022/06/30 12:03:14;;;;;;;0.20;0.20;;;19.40;99.90;20.60;101100.00;;;;5115355;28;20205;-68
2022/06/30 12:06:18;;;;;;;1.52;1.42;;;19.70;99.90;19.20;101059.00;;;;5114975;28;20626;-68
2022/06/30 12:09:07;;;;;;;0.20;0.20;;;19.50;99.90;19.90;101074.00;;;;5098629;28;20544;-68
2022/06/30 12:12:11;;;;;;;0.20;0.20;;;19.50;99.90;20.60;101084.00;;;;5115956;28;20635;-67
2022/06/30 12:15:19;;;;;;;0.32;0.32;;;19.80;99.90;19.50;101081.00;;;;5115118;28;20182;-67
2022/06/30 12:18:28;;;;;;;1.25;1.13;;;19.90;99.90;19.30;101077.00;;;;5114943;28;20163;-68
2022/06/30 12:21:03;;;;;;;0.40;0.40;;;19.50;99.90;19.80;101074.00;;;;5086180;28;20308;-68
2022/06/30 12:23:49;;;;;;;0.35;0.35;;;19.40;99.90;19.90;101075.00;;;;5115172;28;20178;-67
2022/06/30 12:26:55;;;;;;;0.30;0.30;;;19.60;99.90;20.30;101073.00;;;;5115804;27;20178;-68
2022/06/30 12:29:41;;;;;;;0.40;0.40;;;19.70;99.90;21.30;101087.00;;;;5102065;28;20245;-68
2022/06/30 12:32:53;;;;;;;0.50;0.50;;;20.30;99.90;19.30;101075.00;;;;5096513;28;20227;-68
2022/06/30 12:35:38;;;;;;;1.50;1.07;;;19.70;99.90;19.30;101077.00;;;;5099914;28;20180;-68
2022/06/30 12:38:34;;;;;;;2.37;2.17;;;19.20;99.90;18.80;101101.00;;;;5114737;28;20182;-67
2022/06/30 12:41:26;;;;;;;3.20;1.93;;;18.90;99.90;19.50;101102.00;;;;5115518;28;20651;-68
2022/06/30 12:44:28;;;;;;;1.20;1.13;;;19.10;99.90;19.80;101086.00;;;;5115444;28;20548;-68
2022/06/30 12:47:30;;;;;;;4.17;3.37;;;19.30;99.90;19.20;101115.00;;;;5114213;28;20186;-67
2022/06/30 12:50:21;;;;;;;1.03;1.03;;;19.20;99.90;18.80;101127.00;;;;5114321;28;20624;-67
2022/06/30 12:53:24;;;;;;;2.43;1.70;;;18.80;99.90;18.90;101120.00;;;;5113930;28;20244;-67
2022/06/30 12:56:18;;;;;;;0.73;0.73;;;18.80;99.90;19.10;101124.00;;;;5083276;28;20648;-67
2022/06/30 12:59:00;;;;;;;0.57;0.50;;;18.70;99.90;19.10;101125.00;;;;5114212;28;20183;-67
2022/06/30 13:02:00;;;;;;;2.10;2.00;;;18.80;99.90;19.80;101128.00;;;;5114096;28;20187;-67
2022/06/30 13:04:53;;;;;;;0.80;0.80;;;19.10;99.90;19.70;101116.00;;;;5115244;28;20182;-67
2022/06/30 13:07:39;;;;;;;0.30;0.30;;;19.40;99.90;19.40;101104.00;;;;5096963;28;20218;-67
2022/06/30 13:11:04;;;;;;;7.73;1.77;;;19.00;99.90;18.00;101124.00;;;;5115170;28;20636;-67
2022/06/30 13:13:54;;;;;;;1.90;1.57;;;18.40;99.90;18.00;101132.00;;;;5113762;28;20216;-67
2022/06/30 13:16:56;;;;;;;0.90;0.90;;;18.10;99.90;18.60;101134.00;;;;5113898;28;20191;-67
2022/06/30 13:19:41;;;;;;;0.80;0.80;;;18.30;99.90;18.60;101113.00;;;;5113482;28;20206;-67
2022/06/30 13:22:46;;;;;;;0.30;0.30;;;18.20;99.90;19.50;101111.00;;;;5113530;28;20184;-68
2022/06/30 13:25:47;;;;;;;0.53;0.53;;;18.70;99.90;19.70;101072.00;;;;5114004;28;20624;-68
2022/06/30 13:28:54;;;;;;;0.30;0.30;;;19.00;99.90;20.30;101099.00;;;;5113606;28;20189;-68
2022/06/30 13:31:55;;;;;;;0.50;0.50;;;19.50;99.90;20.00;101091.00;;;;5114333;28;20204;-67
2022/06/30 13:34:44;;;;;;;0.40;0.40;;;19.60;99.90;20.00;101109.00;;;;5113922;28;20221;-68
2022/06/30 13:37:37;;;;;;;2.93;2.30;;;19.40;99.90;19.70;101104.00;;;;5114658;28;20536;-67
2022/06/30 13:40:27;;;;;;;3.50;1.67;;;19.20;99.90;18.60;101111.00;;;;5114565;28;20571;-67
2022/06/30 13:43:28;;;;;;;3.17;2.97;;;18.80;99.90;18.10;101131.00;;;;5096050;28;20222;-67
2022/06/30 13:46:27;;;;;;;2.20;2.10;;;18.20;99.90;18.00;101132.00;;;;5114635;28;20185;-67
2022/06/30 13:49:27;;;;;;;1.53;1.50;;;17.90;99.90;18.30;101148.00;;;;5112981;28;20221;-67